createdAt,value
2018-01-18T00:01:20.974Z,99551
2018-01-18T00:03:50.287Z,99543
2018-01-18T00:06:19.385Z,99535
2018-01-18T00:08:48.517Z,99524
2018-01-18T00:11:17.663Z,99522
2018-01-18T00:13:46.750Z,99523
2018-01-18T00:16:16.007Z,99525
2018-01-18T00:18:45.201Z,99518
2018-01-18T00:21:14.476Z,99532
2018-01-18T00:23:43.769Z,99526
2018-01-18T00:26:13.128Z,99532
2018-01-18T00:28:42.298Z,99538
2018-01-18T00:31:11.630Z,99545
2018-01-18T00:33:41.783Z,99538
2018-01-18T00:36:11.046Z,99538
2018-01-18T00:38:40.199Z,99530
2018-01-18T00:41:11.149Z,99528
2018-01-18T00:43:40.172Z,99521
2018-01-18T00:46:09.297Z,99529
2018-01-18T00:48:38.489Z,99522
2018-01-18T00:51:07.692Z,99514
2018-01-18T00:53:36.859Z,99517
2018-01-18T00:56:06.190Z,99512
2018-01-18T00:58:36.221Z,99506
2018-01-18T01:01:05.517Z,99516
2018-01-18T01:03:34.728Z,99502
2018-01-18T01:06:03.922Z,99505
2018-01-18T01:08:34.346Z,99499
2018-01-18T01:11:04.313Z,99498
2018-01-18T01:13:33.432Z,99487
2018-01-18T01:16:02.553Z,99482
2018-01-18T01:18:32.056Z,99485
2018-01-18T01:21:01.195Z,99484
2018-01-18T01:23:30.453Z,99490
2018-01-18T01:25:59.619Z,99492
2018-01-18T01:28:28.738Z,99506
2018-01-18T01:30:57.856Z,99505
2018-01-18T01:33:27.022Z,99501
2018-01-18T01:35:56.139Z,99511
2018-01-18T01:38:25.266Z,99505
2018-01-18T01:40:54.460Z,99497
2018-01-18T01:43:23.586Z,99495
2018-01-18T01:45:52.884Z,99498
2018-01-18T01:48:39.134Z,99491
2018-01-18T01:51:08.298Z,99499
2018-01-18T01:53:37.497Z,99490
2018-01-18T01:56:06.912Z,99491
2018-01-18T01:58:36.128Z,99487
2018-01-18T02:01:05.339Z,99485
2018-01-18T02:03:34.576Z,99483
2018-01-18T02:06:03.711Z,99488
2018-01-18T02:08:33.624Z,99471
2018-01-18T02:11:04.294Z,99468
2018-01-18T02:13:36.470Z,99457
2018-01-18T02:16:05.790Z,99462
2018-01-18T02:18:36.157Z,99467
2018-01-18T02:21:05.335Z,99457
2018-01-18T02:23:35.293Z,99458
2018-01-18T02:26:04.512Z,99455
2018-01-18T02:28:33.685Z,99452
2018-01-18T02:31:03.621Z,99444
2018-01-18T02:33:34.605Z,99448
2018-01-18T02:36:03.911Z,99447
2018-01-18T02:38:33.100Z,99442
2018-01-18T02:41:03.587Z,99430
2018-01-18T02:43:32.830Z,99425
2018-01-18T02:46:02.118Z,99410
2018-01-18T02:48:31.317Z,99409
2018-01-18T02:51:01.395Z,99408
2018-01-18T02:53:31.380Z,99405
2018-01-18T02:56:00.530Z,99401
2018-01-18T02:58:30.451Z,99400
2018-01-18T03:00:59.614Z,99395
2018-01-18T03:03:29.043Z,99384
2018-01-18T03:05:58.231Z,99382
2018-01-18T03:08:27.375Z,99380
2018-01-18T03:10:56.491Z,99367
2018-01-18T03:13:25.649Z,99365
2018-01-18T03:15:55.207Z,99358
2018-01-18T03:18:24.445Z,99356
2018-01-18T03:20:53.606Z,99353
2018-01-18T03:23:22.745Z,99349
2018-01-18T03:25:51.846Z,99345
2018-01-18T03:28:21.110Z,99334
2018-01-18T03:30:50.532Z,99331
2018-01-18T03:33:21.483Z,99326
2018-01-18T03:35:50.682Z,99324
2018-01-18T03:38:19.828Z,99321
2018-01-18T03:40:48.925Z,99320
2018-01-18T03:43:18.062Z,99315
2018-01-18T03:45:47.205Z,99311
2018-01-18T03:48:16.486Z,99308
2018-01-18T03:50:45.646Z,99311
2018-01-18T03:53:15.554Z,99308
2018-01-18T03:55:44.901Z,99308
2018-01-18T03:58:14.386Z,99308
2018-01-18T04:00:43.664Z,99307
2018-01-18T04:03:13.680Z,99305
2018-01-18T04:05:42.936Z,99301
2018-01-18T04:08:12.225Z,99290
2018-01-18T04:10:41.399Z,99286
2018-01-18T04:13:16.518Z,99289
2018-01-18T04:15:46.483Z,99278
2018-01-18T04:18:15.733Z,99281
2018-01-18T04:20:44.930Z,99275
2018-01-18T04:23:14.182Z,99277
2018-01-18T04:25:43.617Z,99273
2018-01-18T04:28:13.696Z,99269
2018-01-18T04:30:42.946Z,99258
2018-01-18T04:33:13.170Z,99259
2018-01-18T04:35:42.404Z,99251
2018-01-18T04:38:11.610Z,99241
2018-01-18T04:40:41.580Z,99232
2018-01-18T04:43:10.749Z,99218
2018-01-18T04:45:40.085Z,99213
2018-01-18T04:48:09.386Z,99201
2018-01-18T04:50:38.581Z,99189
2018-01-18T04:53:08.500Z,99183
2018-01-18T04:55:37.813Z,99184
2018-01-18T04:58:07.792Z,99176
2018-01-18T05:00:37.123Z,99159
2018-01-18T05:03:06.388Z,99163
2018-01-18T05:05:36.154Z,99156
2018-01-18T05:08:05.431Z,99136
2018-01-18T05:10:34.694Z,99119
2018-01-18T05:13:03.816Z,99120
2018-01-18T05:15:33.232Z,99116
2018-01-18T05:18:03.241Z,99111
2018-01-18T05:20:32.595Z,99111
2018-01-18T05:23:02.510Z,99105
2018-01-18T05:25:32.669Z,99097
2018-01-18T05:28:01.781Z,99092
2018-01-18T05:30:30.897Z,99080
2018-01-18T05:33:00.056Z,99079
2018-01-18T05:35:29.214Z,99068
2018-01-18T05:37:58.330Z,99060
2018-01-18T05:40:27.688Z,99044
2018-01-18T05:42:56.795Z,99030
2018-01-18T05:45:26.068Z,99028
2018-01-18T05:47:55.529Z,99018
2018-01-18T05:50:24.653Z,99017
2018-01-18T05:52:53.984Z,99009
2018-01-18T05:55:23.914Z,99011
2018-01-18T05:57:53.791Z,99006
2018-01-18T06:00:23.018Z,98999
2018-01-18T06:02:52.193Z,98985
2018-01-18T06:05:21.313Z,98985
2018-01-18T06:07:51.281Z,98983
2018-01-18T06:10:20.441Z,98982
2018-01-18T06:12:49.586Z,98983
2018-01-18T06:15:18.727Z,98973
2018-01-18T06:17:47.879Z,98965
2018-01-18T06:20:18.133Z,98947
2018-01-18T06:22:47.330Z,98941
2018-01-18T06:25:16.525Z,98930
2018-01-18T06:27:45.847Z,98915
2018-01-18T06:30:15.061Z,98900
2018-01-18T06:32:44.245Z,98889
2018-01-18T06:35:13.389Z,98867
2018-01-18T06:37:42.894Z,98863
2018-01-18T06:40:12.172Z,98869
2018-01-18T06:42:42.321Z,98865
2018-01-18T06:45:11.596Z,98865
2018-01-18T06:47:41.738Z,98851
2018-01-18T06:50:10.943Z,98849
2018-01-18T06:52:40.171Z,98844
2018-01-18T06:55:09.436Z,98831
2018-01-18T06:57:38.628Z,98825
2018-01-18T07:00:08.009Z,98820
2018-01-18T07:02:38.002Z,98810
2018-01-18T07:05:07.143Z,98804
2018-01-18T07:07:36.308Z,98794
2018-01-18T07:10:06.333Z,98777
2018-01-18T07:12:35.526Z,98777
2018-01-18T07:15:04.893Z,98765
2018-01-18T07:17:34.595Z,98749
2018-01-18T07:20:04.436Z,98741
2018-01-18T07:22:33.694Z,98731
2018-01-18T07:25:02.903Z,98725
2018-01-18T07:27:34.166Z,98721
2018-01-18T07:30:04.894Z,98717
2018-01-18T07:32:34.207Z,98694
2018-01-18T07:35:04.210Z,98692
2018-01-18T07:37:33.371Z,98674
2018-01-18T07:40:02.692Z,98665
2018-01-18T07:42:31.798Z,98663
2018-01-18T07:45:00.984Z,98653
2018-01-18T07:47:30.921Z,98642
2018-01-18T07:50:00.104Z,98636
2018-01-18T07:52:29.416Z,98632
2018-01-18T07:54:58.538Z,98616
2018-01-18T07:57:27.713Z,98604
2018-01-18T07:59:57.185Z,98595
2018-01-18T08:02:27.138Z,98583
2018-01-18T08:04:56.298Z,98569
2018-01-18T08:07:25.451Z,98563
2018-01-18T08:09:55.688Z,98561
2018-01-18T08:12:24.841Z,98555
2018-01-18T08:14:53.998Z,98545
2018-01-18T08:17:23.105Z,98534
2018-01-18T08:19:52.226Z,98522
2018-01-18T08:22:22.021Z,98507
2018-01-18T08:24:51.897Z,98494
2018-01-18T08:27:21.040Z,98478
2018-01-18T08:29:50.227Z,98472
2018-01-18T08:32:19.414Z,98461
2018-01-18T08:34:48.586Z,98455
2018-01-18T08:37:17.758Z,98446
2018-01-18T08:39:46.927Z,98448
2018-01-18T08:42:16.329Z,98450
2018-01-18T08:44:46.429Z,98447
2018-01-18T08:47:15.545Z,98436
2018-01-18T08:49:44.717Z,98426
2018-01-18T08:52:13.952Z,98417
2018-01-18T08:54:44.183Z,98407
2018-01-18T08:57:13.379Z,98386
2018-01-18T08:59:42.552Z,98377
2018-01-18T09:02:11.725Z,98369
2018-01-18T09:04:40.897Z,98357
2018-01-18T09:07:10.268Z,98353
2018-01-18T09:09:39.466Z,98352
2018-01-18T09:12:08.766Z,98343
2018-01-18T09:14:38.038Z,98335
2018-01-18T09:17:07.980Z,98326
2018-01-18T09:19:37.258Z,98308
2018-01-18T09:22:07.806Z,98293
2018-01-18T09:24:37.212Z,98280
2018-01-18T09:27:06.413Z,98270
2018-01-18T09:29:35.723Z,98250
2018-01-18T09:32:05.825Z,98241
2018-01-18T09:34:35.131Z,98240
2018-01-18T09:37:04.321Z,98238
2018-01-18T09:39:33.537Z,98230
2018-01-18T09:42:02.814Z,98226
2018-01-18T09:44:31.958Z,98207
2018-01-18T09:47:01.089Z,98203
2018-01-18T09:49:30.224Z,98193
2018-01-18T09:51:59.379Z,98186
2018-01-18T09:54:29.429Z,98165
2018-01-18T09:56:58.833Z,98160
2018-01-18T09:59:27.997Z,98154
2018-01-18T10:01:58.088Z,98152
2018-01-18T10:04:27.448Z,98140
2018-01-18T10:06:56.833Z,98124
2018-01-18T10:09:25.945Z,98126
2018-01-18T10:11:55.231Z,98122
2018-01-18T10:14:24.729Z,98120
2018-01-18T10:16:54.632Z,98117
2018-01-18T10:19:24.559Z,98115
2018-01-18T10:21:53.762Z,98108
2018-01-18T10:24:22.912Z,98101
2018-01-18T10:26:53.058Z,98096
2018-01-18T10:29:23.403Z,98094
2018-01-18T10:31:52.599Z,98087
2018-01-18T10:34:22.508Z,98074
2018-01-18T10:36:51.814Z,98061
2018-01-18T10:39:21.113Z,98050
2018-01-18T10:41:50.348Z,98047
2018-01-18T10:44:19.505Z,98042
2018-01-18T10:46:48.639Z,98034
2018-01-18T10:49:17.790Z,98030
2018-01-18T10:51:47.706Z,98019
2018-01-18T10:54:17.053Z,98012
2018-01-18T10:56:46.169Z,98004
2018-01-18T10:59:15.320Z,97993
2018-01-18T11:01:45.420Z,97982
2018-01-18T11:04:16.341Z,97973
2018-01-18T11:06:48.792Z,97966
2018-01-18T11:09:18.126Z,97957
2018-01-18T11:11:50.986Z,97951
2018-01-18T11:14:25.874Z,97943
2018-01-18T11:16:56.737Z,97940
2018-01-18T11:19:25.877Z,97930
2018-01-18T11:21:54.970Z,97929
2018-01-18T11:24:24.067Z,97916
2018-01-18T11:26:53.334Z,97909
2018-01-18T11:29:22.489Z,97897
2018-01-18T11:31:51.677Z,97895
2018-01-18T11:34:21.657Z,97889
2018-01-18T11:36:50.912Z,97886
2018-01-18T11:39:20.072Z,97882
2018-01-18T11:41:49.185Z,97881
2018-01-18T11:44:18.309Z,97887
2018-01-18T11:46:47.461Z,97876
2018-01-18T11:49:17.384Z,97887
2018-01-18T11:51:47.334Z,97886
2018-01-18T11:54:16.518Z,97882
2018-01-18T11:56:47.631Z,97890
2018-01-18T11:59:16.863Z,97879
2018-01-18T12:01:46.147Z,97888
2018-01-18T12:04:15.423Z,97887
2018-01-18T12:06:44.726Z,97896
2018-01-18T12:09:14.789Z,97895
2018-01-18T12:11:44.211Z,97905
2018-01-18T12:14:13.473Z,97910
2018-01-18T12:16:42.768Z,97909
2018-01-18T12:19:12.075Z,97910
2018-01-18T12:21:41.252Z,97906
2018-01-18T12:24:10.690Z,97917
2018-01-18T12:26:39.934Z,97922
2018-01-18T12:29:09.082Z,97927
2018-01-18T12:31:38.606Z,97919
2018-01-18T12:34:09.567Z,97931
2018-01-18T12:36:39.075Z,97941
2018-01-18T12:39:08.414Z,97950
2018-01-18T12:41:38.005Z,97957
2018-01-18T12:44:07.469Z,97967
2018-01-18T12:46:36.906Z,97967
2018-01-18T12:49:07.032Z,97972
2018-01-18T12:51:37.410Z,97986
2018-01-18T12:54:07.065Z,98000
2018-01-18T12:56:36.975Z,98004
2018-01-18T12:59:06.226Z,98012
2018-01-18T13:01:35.470Z,98008
2018-01-18T13:04:04.799Z,98032
2018-01-18T13:06:34.724Z,98041
2018-01-18T13:09:04.114Z,98052
2018-01-18T13:11:34.533Z,98060
2018-01-18T13:14:04.576Z,98074
2018-01-18T13:16:33.755Z,98079
2018-01-18T13:19:03.034Z,98091
2018-01-18T13:21:32.617Z,98096
2018-01-18T13:24:01.704Z,98111
2018-01-18T13:26:30.934Z,98116
2018-01-18T13:29:00.322Z,98130
2018-01-18T13:31:29.522Z,98143
2018-01-18T13:33:58.731Z,98156
2018-01-18T13:36:27.861Z,98164
2018-01-18T13:38:57.173Z,98178
2018-01-18T13:41:26.705Z,98186
2018-01-18T13:43:55.918Z,98205
2018-01-18T13:46:24.993Z,98221
2018-01-18T13:48:54.169Z,98231
2018-01-18T13:51:24.026Z,98246
2018-01-18T13:53:53.139Z,98264
2018-01-18T13:56:22.382Z,98270
2018-01-18T13:58:51.573Z,98286
2018-01-18T14:01:21.346Z,98291
2018-01-18T14:03:50.988Z,98314
2018-01-18T14:06:20.294Z,98314
2018-01-18T14:08:49.682Z,98330
2018-01-18T14:11:19.084Z,98346
2018-01-18T14:13:48.256Z,98355
2018-01-18T14:16:19.707Z,98360
2018-01-18T14:18:49.015Z,98378
2018-01-18T14:21:18.225Z,98396
2018-01-18T14:23:47.428Z,98404
2018-01-18T14:26:17.652Z,98417
2018-01-18T14:28:47.652Z,98437
2018-01-18T14:31:16.974Z,98458
2018-01-18T14:33:46.201Z,98478
2018-01-18T14:36:15.402Z,98483
2018-01-18T14:38:45.432Z,98492
2018-01-18T14:41:14.843Z,98516
2018-01-18T14:43:44.317Z,98524
2018-01-18T14:46:13.788Z,98541
2018-01-18T14:48:43.115Z,98553
2018-01-18T14:51:12.336Z,98574
2018-01-18T14:53:41.836Z,98593
2018-01-18T14:56:11.361Z,98602
2018-01-18T14:58:41.344Z,98599
2018-01-18T15:01:10.944Z,98624
2018-01-18T15:03:40.584Z,98645
2018-01-18T15:06:09.954Z,98659
2018-01-18T15:08:39.778Z,98671
2018-01-18T15:11:09.073Z,98687
2018-01-18T15:13:39.240Z,98694
2018-01-18T15:16:08.485Z,98706
2018-01-18T15:18:37.954Z,98722
2018-01-18T15:21:07.386Z,98730
2018-01-18T15:23:36.671Z,98744
2018-01-18T15:26:06.397Z,98759
2018-01-18T15:28:35.698Z,98773
2018-01-18T15:31:05.709Z,98781
2018-01-18T15:33:35.960Z,98789
2018-01-18T15:36:05.144Z,98802
2018-01-18T15:38:34.358Z,98815
2018-01-18T15:41:03.639Z,98822
2018-01-18T15:43:32.818Z,98829
2018-01-18T15:46:02.751Z,98839
2018-01-18T15:48:32.680Z,98852
2018-01-18T15:51:02.541Z,98861
2018-01-18T15:53:31.642Z,98871
2018-01-18T15:56:01.257Z,98884
2018-01-18T15:58:30.362Z,98898
2018-01-18T16:00:59.537Z,98906
2018-01-18T16:03:28.838Z,98914
2018-01-18T16:05:57.957Z,98919
2018-01-18T16:08:27.225Z,98931
2018-01-18T16:10:56.369Z,98943
2018-01-18T16:13:25.530Z,98945
2018-01-18T16:15:54.646Z,98951
2018-01-18T16:18:23.830Z,98955
2018-01-18T16:20:52.947Z,98971
2018-01-18T16:23:22.081Z,98980
2018-01-18T16:25:51.254Z,98983
2018-01-18T16:28:21.153Z,98986
2018-01-18T16:30:50.366Z,98997
2018-01-18T16:33:19.626Z,99008
2018-01-18T16:35:48.803Z,99010
2018-01-18T16:38:18.083Z,99015
2018-01-18T16:40:47.324Z,99023
2018-01-18T16:43:17.227Z,99025
2018-01-18T16:45:46.451Z,99030
2018-01-18T16:48:15.653Z,99044
2018-01-18T16:50:45.549Z,99046
2018-01-18T16:53:14.765Z,99053
2018-01-18T16:55:43.982Z,99063
2018-01-18T16:58:13.292Z,99065
2018-01-18T17:00:43.074Z,99070
2018-01-18T17:03:12.524Z,99084
2018-01-18T17:05:41.699Z,99090
2018-01-18T17:08:11.726Z,99094
2018-01-18T17:10:41.841Z,99098
2018-01-18T17:13:11.157Z,99107
2018-01-18T17:15:41.280Z,99108
2018-01-18T17:18:10.925Z,99116
2018-01-18T17:20:40.978Z,99119
2018-01-18T17:23:10.283Z,99121
2018-01-18T17:25:39.897Z,99130
2018-01-18T17:28:09.201Z,99134
2018-01-18T17:30:39.476Z,99142
2018-01-18T17:33:09.200Z,99145
2018-01-18T17:35:38.908Z,99149
2018-01-18T17:38:08.327Z,99153
2018-01-18T17:40:37.650Z,99165
2018-01-18T17:43:07.699Z,99173
2018-01-18T17:45:37.751Z,99175
2018-01-18T17:48:07.967Z,99178
2018-01-18T17:50:37.201Z,99184
2018-01-18T17:53:06.654Z,99190
2018-01-18T17:55:35.995Z,99192
2018-01-18T17:58:05.190Z,99200
2018-01-18T18:00:34.373Z,99203
2018-01-18T18:03:03.677Z,99214
2018-01-18T18:05:33.657Z,99213
2018-01-18T18:08:02.854Z,99226
2018-01-18T18:10:32.073Z,99233
2018-01-18T18:13:01.956Z,99233
2018-01-18T18:15:31.173Z,99239
2018-01-18T18:18:00.361Z,99247
2018-01-18T18:20:29.497Z,99252
2018-01-18T18:22:58.892Z,99250
2018-01-18T18:25:28.194Z,99257
2018-01-18T18:27:57.492Z,99258
2018-01-18T18:30:26.607Z,99264
2018-01-18T18:32:55.791Z,99271
2018-01-18T18:35:25.082Z,99278
2018-01-18T18:37:55.048Z,99278
2018-01-18T18:40:24.692Z,99289
2018-01-18T18:42:55.444Z,99291
2018-01-18T18:45:24.754Z,99295
2018-01-18T18:47:54.003Z,99301
2018-01-18T18:50:23.133Z,99317
2018-01-18T18:52:53.294Z,99311
2018-01-18T18:55:22.527Z,99316
2018-01-18T18:57:52.225Z,99317
2018-01-18T19:00:21.554Z,99316
2018-01-18T19:02:50.757Z,99317
2018-01-18T19:05:20.209Z,99324
2018-01-18T19:07:49.366Z,99325
2018-01-18T19:10:18.638Z,99328
2018-01-18T19:12:47.895Z,99331
2018-01-18T19:15:17.146Z,99336
2018-01-18T19:17:47.193Z,99338
2018-01-18T19:20:17.317Z,99338
2018-01-18T19:22:46.683Z,99340
2018-01-18T19:25:15.983Z,99343
2018-01-18T19:27:45.930Z,99353
2018-01-18T19:30:15.259Z,99354
2018-01-18T19:32:45.352Z,99356
2018-01-18T19:35:14.654Z,99360
2018-01-18T19:37:45.025Z,99372
2018-01-18T19:40:14.450Z,99372
2018-01-18T19:42:44.856Z,99369
2018-01-18T19:45:14.443Z,99366
2018-01-18T19:47:44.214Z,99370
2018-01-18T19:50:14.424Z,99372
2018-01-18T19:52:44.931Z,99379
2018-01-18T19:55:16.228Z,99382
2018-01-18T19:57:45.519Z,99388
2018-01-18T20:00:15.950Z,99389
2018-01-18T20:02:45.351Z,99394
2018-01-18T20:05:15.020Z,99396
2018-01-18T20:07:44.576Z,99402
2018-01-18T20:10:13.843Z,99406
2018-01-18T20:12:43.034Z,99410
2018-01-18T20:15:12.349Z,99413
2018-01-18T20:17:41.713Z,99420
2018-01-18T20:20:11.030Z,99425
2018-01-18T20:22:40.457Z,99421
2018-01-18T20:25:10.767Z,99423
2018-01-18T20:27:40.466Z,99426
2018-01-18T20:30:09.786Z,99424
2018-01-18T20:32:40.244Z,99426
2018-01-18T20:35:10.215Z,99436
2018-01-18T20:37:39.429Z,99440
2018-01-18T20:40:08.814Z,99436
2018-01-18T20:42:38.455Z,99436
2018-01-18T20:45:07.827Z,99434
2018-01-18T20:47:38.043Z,99432
2018-01-18T20:50:08.181Z,99435
2018-01-18T20:52:37.670Z,99438
2018-01-18T20:55:07.805Z,99443
2018-01-18T20:57:37.199Z,99443
2018-01-18T21:00:08.255Z,99444
2018-01-18T21:02:37.775Z,99449
2018-01-18T21:05:08.679Z,99447
2018-01-18T21:07:39.015Z,99456
2018-01-18T21:10:09.496Z,99457
2018-01-18T21:12:39.633Z,99459
2018-01-18T21:15:09.259Z,99466
2018-01-18T21:17:39.095Z,99467
2018-01-18T21:20:09.195Z,99468
2018-01-18T21:22:38.470Z,99475
2018-01-18T21:25:07.935Z,99478
2018-01-18T21:27:37.395Z,99477
2018-01-18T21:30:07.776Z,99484
2018-01-18T21:32:39.454Z,99487
2018-01-18T21:35:09.565Z,99488
2018-01-18T21:37:39.177Z,99492
2018-01-18T21:40:09.245Z,99498
2018-01-18T21:42:38.594Z,99499
2018-01-18T21:45:08.066Z,99506
2018-01-18T21:47:39.543Z,99510
2018-01-18T21:50:09.266Z,99512
2018-01-18T21:52:38.611Z,99518
2018-01-18T21:55:10.482Z,99521
2018-01-18T21:57:40.358Z,99521
2018-01-18T22:00:10.000Z,99527
2018-01-18T22:02:39.476Z,99526
2018-01-18T22:05:08.660Z,99530
2018-01-18T22:07:38.065Z,99528
2018-01-18T22:10:07.481Z,99530
2018-01-18T22:12:37.623Z,99524
2018-01-18T22:15:07.123Z,99530
2018-01-18T22:17:36.666Z,99526
2018-01-18T22:20:05.905Z,99541
2018-01-18T22:22:36.370Z,99545
2018-01-18T22:25:05.985Z,99545
2018-01-18T22:27:35.503Z,99547
2018-01-18T22:30:04.805Z,99554
2018-01-18T22:32:35.342Z,99553
2018-01-18T22:35:04.661Z,99553
2018-01-18T22:37:34.610Z,99558
2018-01-18T22:40:04.160Z,99555
2018-01-18T22:42:33.363Z,99556
2018-01-18T22:45:02.724Z,99560
2018-01-18T22:47:33.824Z,99558
2018-01-18T22:50:03.259Z,99557
2018-01-18T22:52:32.436Z,99555
2018-01-18T22:55:01.674Z,99564
2018-01-18T22:57:30.807Z,99566
2018-01-18T22:59:59.974Z,99564
2018-01-18T23:02:29.347Z,99567
2018-01-18T23:04:58.621Z,99564
2018-01-18T23:07:28.158Z,99570
2018-01-18T23:09:57.709Z,99573
2018-01-18T23:12:27.842Z,99582
2018-01-18T23:14:57.648Z,99581
2018-01-18T23:17:26.900Z,99588
2018-01-18T23:19:56.070Z,99588
2018-01-18T23:22:25.301Z,99599
2018-01-18T23:24:55.563Z,99599
2018-01-18T23:27:24.724Z,99593
2018-01-18T23:29:54.693Z,99587
2018-01-18T23:32:24.022Z,99583
2018-01-18T23:34:53.164Z,99586
2018-01-18T23:37:22.284Z,99578
2018-01-18T23:39:51.481Z,99581
2018-01-18T23:42:20.663Z,99573
2018-01-18T23:44:49.841Z,99573
2018-01-18T23:47:19.781Z,99572
2018-01-18T23:49:48.915Z,99571
2018-01-18T23:52:18.065Z,99579
2018-01-18T23:54:47.522Z,99574
2018-01-18T23:57:16.622Z,99580
2018-01-18T23:59:45.802Z,99582
